sensor_id;sensor_type;location;lat;lon;timestamp;pressure;altitude;pressure_sealevel;temperature;humidity
46009;BME280;39597;51.438;7.006;2022-10-16T00:00:57;99639.81;;;12.90;100.00
46009;BME280;39597;51.438;7.006;2022-10-16T00:03:23;99641.38;;;12.91;100.00
46009;BME280;39597;51.438;7.006;2022-10-16T00:05:48;99656.97;;;12.90;100.00
46009;BME280;39597;51.438;7.006;2022-10-16T00:08:14;99658.94;;;12.90;100.00
46009;BME280;39597;51.438;7.006;2022-10-16T00:10:40;99663.97;;;12.88;100.00
46009;BME280;39597;51.438;7.006;2022-10-16T00:13:05;99660.44;;;12.87;100.00
46009;BME280;39597;51.438;7.006;2022-10-16T00:15:36;99659.22;;;12.85;100.00
46009;BME280;39597;51.438;7.006;2022-10-16T00:18:03;99659.66;;;12.87;100.00
46009;BME280;39597;51.438;7.006;2022-10-16T00:20:29;99656.13;;;12.86;100.00
46009;BME280;39597;51.438;7.006;2022-10-16T00:22:57;99652.63;;;12.86;100.00
46009;BME280;39597;51.438;7.006;2022-10-16T00:25:22;99658.88;;;12.86;100.00
46009;BME280;39597;51.438;7.006;2022-10-16T00:27:48;99665.47;;;12.85;100.00
46009;BME280;39597;51.438;7.006;2022-10-16T00:30:13;99666.28;;;12.86;100.00
46009;BME280;39597;51.438;7.006;2022-10-16T00:32:41;99662.75;;;12.85;100.00
46009;BME280;39597;51.438;7.006;2022-10-16T00:35:07;99654.56;;;12.85;100.00
46009;BME280;39597;51.438;7.006;2022-10-16T00:37:32;99672.53;;;12.86;100.00
46009;BME280;39597;51.438;7.006;2022-10-16T00:39:59;99660.06;;;12.89;100.00
46009;BME280;39597;51.438;7.006;2022-10-16T00:42:24;99660.88;;;12.89;100.00
46009;BME280;39597;51.438;7.006;2022-10-16T00:44:55;99659.72;;;12.90;100.00
46009;BME280;39597;51.438;7.006;2022-10-16T00:47:41;99658.56;;;12.91;100.00
46009;BME280;39597;51.438;7.006;2022-10-16T00:50:22;99665.28;;;12.94;100.00
46009;BME280;39597;51.438;7.006;2022-10-16T00:52:52;99666.41;;;12.93;100.00
46009;BME280;39597;51.438;7.006;2022-10-16T00:55:18;99671.88;;;12.93;100.00
46009;BME280;39597;51.438;7.006;2022-10-16T00:57:45;99675.84;;;12.95;100.00
46009;BME280;39597;51.438;7.006;2022-10-16T01:00:16;99669.94;;;12.93;100.00
46009;BME280;39597;51.438;7.006;2022-10-16T01:02:41;99660.94;;;12.93;100.00
46009;BME280;39597;51.438;7.006;2022-10-16T01:05:07;99656.97;;;12.90;100.00
46009;BME280;39597;51.438;7.006;2022-10-16T01:07:46;99658.50;;;12.88;100.00
46009;BME280;39597;51.438;7.006;2022-10-16T01:10:35;99655.78;;;12.88;100.00
46009;BME280;39597;51.438;7.006;2022-10-16T01:13:21;99667.06;;;12.86;100.00
46009;BME280;39597;51.438;7.006;2022-10-16T01:15:52;99669.00;;;12.86;100.00
46009;BME280;39597;51.438;7.006;2022-10-16T01:18:54;99670.94;;;12.85;100.00
46009;BME280;39597;51.438;7.006;2022-10-16T01:21:26;99669.72;;;12.83;100.00
46009;BME280;39597;51.438;7.006;2022-10-16T01:24:17;99674.41;;;12.82;100.00
46009;BME280;39597;51.438;7.006;2022-10-16T01:27:09;99670.03;;;12.78;100.00
46009;BME280;39597;51.438;7.006;2022-10-16T01:32:24;99665.25;;;12.75;100.00
46009;BME280;39597;51.438;7.006;2022-10-16T01:34:59;99662.47;;;12.71;100.00
46009;BME280;39597;51.438;7.006;2022-10-16T01:37:45;99669.00;;;12.67;100.00
46009;BME280;39597;51.438;7.006;2022-10-16T01:40:12;99670.16;;;12.65;100.00
46009;BME280;39597;51.438;7.006;2022-10-16T01:42:44;99667.00;;;12.63;100.00
46009;BME280;39597;51.438;7.006;2022-10-16T01:45:14;99669.56;;;12.56;100.00
46009;BME280;39597;51.438;7.006;2022-10-16T01:47:44;99668.00;;;12.55;100.00
46009;BME280;39597;51.438;7.006;2022-10-16T01:50:12;99664.47;;;12.55;100.00
46009;BME280;39597;51.438;7.006;2022-10-16T01:52:41;99671.88;;;12.54;100.00
46009;BME280;39597;51.438;7.006;2022-10-16T01:55:10;99665.63;;;12.54;100.00
46009;BME280;39597;51.438;7.006;2022-10-16T01:57:39;99671.16;;;12.57;100.00
46009;BME280;39597;51.438;7.006;2022-10-16T02:00:10;99664.47;;;12.55;100.00
46009;BME280;39597;51.438;7.006;2022-10-16T02:02:39;99671.94;;;12.58;100.00
46009;BME280;39597;51.438;7.006;2022-10-16T02:05:20;99675.13;;;12.60;100.00
46009;BME280;39597;51.438;7.006;2022-10-16T02:07:48;99668.50;;;12.61;100.00
46009;BME280;39597;51.438;7.006;2022-10-16T02:10:13;99679.44;;;12.61;100.00
46009;BME280;39597;51.438;7.006;2022-10-16T02:12:46;99684.53;;;12.62;100.00
46009;BME280;39597;51.438;7.006;2022-10-16T02:15:14;99683.03;;;12.65;100.00
46009;BME280;39597;51.438;7.006;2022-10-16T02:17:40;99681.44;;;12.64;100.00
46009;BME280;39597;51.438;7.006;2022-10-16T02:20:05;99676.84;;;12.68;100.00
46009;BME280;39597;51.438;7.006;2022-10-16T02:22:39;99681.53;;;12.68;100.00
46009;BME280;39597;51.438;7.006;2022-10-16T02:25:34;99674.47;;;12.67;100.00
46009;BME280;39597;51.438;7.006;2022-10-16T02:28:05;99673.63;;;12.62;100.00
46009;BME280;39597;51.438;7.006;2022-10-16T02:30:45;99683.41;;;12.63;100.00
46009;BME280;39597;51.438;7.006;2022-10-16T02:33:14;99682.59;;;12.63;100.00
46009;BME280;39597;51.438;7.006;2022-10-16T02:35:43;99686.91;;;12.64;100.00
46009;BME280;39597;51.438;7.006;2022-10-16T02:38:11;99683.88;;;12.69;100.00
46009;BME280;39597;51.438;7.006;2022-10-16T02:40:38;99686.69;;;12.73;100.00
46009;BME280;39597;51.438;7.006;2022-10-16T02:43:04;99674.97;;;12.72;100.00
46009;BME280;39597;51.438;7.006;2022-10-16T02:45:30;99679.28;;;12.73;100.00
46009;BME280;39597;51.438;7.006;2022-10-16T02:47:55;99675.41;;;12.74;100.00
46009;BME280;39597;51.438;7.006;2022-10-16T02:50:21;99674.75;;;12.81;100.00
46009;BME280;39597;51.438;7.006;2022-10-16T02:52:47;99681.38;;;12.80;100.00
46009;BME280;39597;51.438;7.006;2022-10-16T02:55:12;99681.09;;;12.85;100.00
46009;BME280;39597;51.438;7.006;2022-10-16T02:57:39;99674.84;;;12.84;100.00
46009;BME280;39597;51.438;7.006;2022-10-16T03:00:09;99670.88;;;12.82;100.00
46009;BME280;39597;51.438;7.006;2022-10-16T03:02:37;99672.81;;;12.81;100.00
46009;BME280;39597;51.438;7.006;2022-10-16T03:05:03;99684.91;;;12.80;100.00
46009;BME280;39597;51.438;7.006;2022-10-16T03:07:28;99673.63;;;12.82;99.89
46009;BME280;39597;51.438;7.006;2022-10-16T03:09:53;99679.16;;;12.85;99.65
46009;BME280;39597;51.438;7.006;2022-10-16T03:12:20;99690.13;;;12.89;99.22
46009;BME280;39597;51.438;7.006;2022-10-16T03:14:46;99680.72;;;12.86;99.07
46009;BME280;39597;51.438;7.006;2022-10-16T03:17:11;99697.53;;;12.88;98.87
46009;BME280;39597;51.438;7.006;2022-10-16T03:19:38;99684.31;;;12.90;98.75
46009;BME280;39597;51.438;7.006;2022-10-16T03:22:04;99687.47;;;12.92;98.18
46009;BME280;39597;51.438;7.006;2022-10-16T03:24:30;99679.63;;;12.91;98.33
46009;BME280;39597;51.438;7.006;2022-10-16T03:26:55;99690.13;;;12.89;98.34
46009;BME280;39597;51.438;7.006;2022-10-16T03:29:21;99678.78;;;12.87;98.39
46009;BME280;39597;51.438;7.006;2022-10-16T03:31:46;99683.44;;;12.86;98.27
46009;BME280;39597;51.438;7.006;2022-10-16T03:34:15;99675.69;;;12.88;98.29
46009;BME280;39597;51.438;7.006;2022-10-16T03:36:40;99679.56;;;12.87;98.06
46009;BME280;39597;51.438;7.006;2022-10-16T03:39:05;99680.28;;;12.84;98.25
46009;BME280;39597;51.438;7.006;2022-10-16T03:41:31;99686.47;;;12.81;98.53
46009;BME280;39597;51.438;7.006;2022-10-16T03:43:57;99696.19;;;12.79;98.57
46009;BME280;39597;51.438;7.006;2022-10-16T03:46:23;99695.03;;;12.80;98.44
46009;BME280;39597;51.438;7.006;2022-10-16T03:48:48;99699.97;;;12.74;98.48
46009;BME280;39597;51.438;7.006;2022-10-16T03:51:13;99701.13;;;12.73;98.82
46009;BME280;39597;51.438;7.006;2022-10-16T03:53:39;99700.69;;;12.71;98.77
46009;BME280;39597;51.438;7.006;2022-10-16T03:56:04;99696.47;;;12.74;98.32
46009;BME280;39597;51.438;7.006;2022-10-16T03:58:30;99689.34;;;12.69;98.68
46009;BME280;39597;51.438;7.006;2022-10-16T04:00:55;99688.63;;;12.72;98.45
46009;BME280;39597;51.438;7.006;2022-10-16T04:03:20;99692.81;;;12.66;98.57
46009;BME280;39597;51.438;7.006;2022-10-16T04:05:46;99702.50;;;12.63;98.56
46009;BME280;39597;51.438;7.006;2022-10-16T04:08:11;99705.59;;;12.62;98.68
46009;BME280;39597;51.438;7.006;2022-10-16T04:10:37;99704.34;;;12.59;98.83
46009;BME280;39597;51.438;7.006;2022-10-16T04:13:02;99700.03;;;12.58;98.95
46009;BME280;39597;51.438;7.006;2022-10-16T04:15:28;99717.16;;;12.55;98.81
46009;BME280;39597;51.438;7.006;2022-10-16T04:17:53;99720.25;;;12.54;98.91
46009;BME280;39597;51.438;7.006;2022-10-16T04:20:18;99722.97;;;12.54;98.98
46009;BME280;39597;51.438;7.006;2022-10-16T04:22:44;99717.06;;;12.52;98.78
46009;BME280;39597;51.438;7.006;2022-10-16T04:25:09;99718.59;;;12.49;99.20
46009;BME280;39597;51.438;7.006;2022-10-16T04:27:36;99717.00;;;12.48;99.11
46009;BME280;39597;51.438;7.006;2022-10-16T04:30:05;99721.59;;;12.44;99.49
46009;BME280;39597;51.438;7.006;2022-10-16T04:32:31;99730.94;;;12.43;99.55
46009;BME280;39597;51.438;7.006;2022-10-16T04:34:56;99733.22;;;12.41;99.83
46009;BME280;39597;51.438;7.006;2022-10-16T04:37:26;99739.47;;;12.42;99.39
46009;BME280;39597;51.438;7.006;2022-10-16T04:39:52;99744.94;;;12.42;99.37
46009;BME280;39597;51.438;7.006;2022-10-16T04:42:18;99747.59;;;12.38;99.68
46009;BME280;39597;51.438;7.006;2022-10-16T04:44:43;99748.28;;;12.35;99.81
46009;BME280;39597;51.438;7.006;2022-10-16T04:47:08;99746.28;;;12.32;99.91
46009;BME280;39597;51.438;7.006;2022-10-16T04:49:34;99749.38;;;12.30;100.00
46009;BME280;39597;51.438;7.006;2022-10-16T04:51:59;99743.13;;;12.30;99.88
46009;BME280;39597;51.438;7.006;2022-10-16T04:54:24;99749.72;;;12.29;100.00
46009;BME280;39597;51.438;7.006;2022-10-16T04:56:50;99757.47;;;12.27;100.00
46009;BME280;39597;51.438;7.006;2022-10-16T04:59:17;99757.03;;;12.25;100.00
46009;BME280;39597;51.438;7.006;2022-10-16T05:01:43;99758.28;;;12.27;100.00
46009;BME280;39597;51.438;7.006;2022-10-16T05:04:09;99757.03;;;12.25;100.00
46009;BME280;39597;51.438;7.006;2022-10-16T05:06:35;99776.75;;;12.34;99.71
46009;BME280;39597;51.438;7.006;2022-10-16T05:09:00;99775.09;;;12.29;100.00
46009;BME280;39597;51.438;7.006;2022-10-16T05:11:27;99780.44;;;12.26;100.00
46009;BME280;39597;51.438;7.006;2022-10-16T05:13:54;99778.53;;;12.26;100.00
46009;BME280;39597;51.438;7.006;2022-10-16T05:16:23;99788.53;;;12.22;100.00
46009;BME280;39597;51.438;7.006;2022-10-16T05:18:49;99791.28;;;12.22;100.00
46009;BME280;39597;51.438;7.006;2022-10-16T05:21:16;99787.84;;;12.25;100.00
46009;BME280;39597;51.438;7.006;2022-10-16T05:23:41;99789.69;;;12.21;100.00
46009;BME280;39597;51.438;7.006;2022-10-16T05:26:07;99784.16;;;12.18;100.00
46009;BME280;39597;51.438;7.006;2022-10-16T05:28:32;99794.28;;;12.17;100.00
46009;BME280;39597;51.438;7.006;2022-10-16T05:30:58;99794.63;;;12.16;100.00
46009;BME280;39597;51.438;7.006;2022-10-16T05:33:26;99797.00;;;12.17;100.00
46009;BME280;39597;51.438;7.006;2022-10-16T05:35:51;99795.00;;;12.14;100.00
46009;BME280;39597;51.438;7.006;2022-10-16T05:38:17;99789.09;;;12.12;100.00
46009;BME280;39597;51.438;7.006;2022-10-16T05:40:43;99798.88;;;12.13;100.00
46009;BME280;39597;51.438;7.006;2022-10-16T05:43:09;99793.78;;;12.12;100.00
46009;BME280;39597;51.438;7.006;2022-10-16T05:45:35;99795.34;;;12.13;100.00
46009;BME280;39597;51.438;7.006;2022-10-16T05:48:01;99789.53;;;12.14;100.00
46009;BME280;39597;51.438;7.006;2022-10-16T05:50:27;99798.16;;;12.16;100.00
46009;BME280;39597;51.438;7.006;2022-10-16T05:52:52;99798.50;;;12.15;100.00
46009;BME280;39597;51.438;7.006;2022-10-16T05:55:18;99800.03;;;12.12;100.00
46009;BME280;39597;51.438;7.006;2022-10-16T05:57:44;99812.09;;;12.11;100.00
46009;BME280;39597;51.438;7.006;2022-10-16T06:00:10;99820.34;;;12.15;100.00
46009;BME280;39597;51.438;7.006;2022-10-16T06:02:36;99833.22;;;12.14;100.00
46009;BME280;39597;51.438;7.006;2022-10-16T06:05:02;99833.72;;;12.20;100.00
46009;BME280;39597;51.438;7.006;2022-10-16T06:07:28;99839.09;;;12.16;100.00
46009;BME280;39597;51.438;7.006;2022-10-16T06:09:53;99838.66;;;12.14;100.00
46009;BME280;39597;51.438;7.006;2022-10-16T06:12:19;99832.75;;;12.12;100.00
46009;BME280;39597;51.438;7.006;2022-10-16T06:14:46;99844.91;;;12.15;100.00
46009;BME280;39597;51.438;7.006;2022-10-16T06:17:14;99850.38;;;12.15;100.00
46009;BME280;39597;51.438;7.006;2022-10-16T06:19:41;99842.63;;;12.17;100.00
46009;BME280;39597;51.438;7.006;2022-10-16T06:22:06;99846.16;;;12.17;100.00
46009;BME280;39597;51.438;7.006;2022-10-16T06:24:32;99851.34;;;12.22;100.00
46009;BME280;39597;51.438;7.006;2022-10-16T06:26:57;99858.03;;;12.25;100.00
46009;BME280;39597;51.438;7.006;2022-10-16T06:29:22;99863.03;;;12.23;100.00
46009;BME280;39597;51.438;7.006;2022-10-16T06:31:49;99857.41;;;12.31;100.00
46009;BME280;39597;51.438;7.006;2022-10-16T06:34:15;99853.03;;;12.27;100.00
46009;BME280;39597;51.438;7.006;2022-10-16T06:36:40;99860.88;;;12.28;100.00
46009;BME280;39597;51.438;7.006;2022-10-16T06:39:06;99857.41;;;12.31;100.00
46009;BME280;39597;51.438;7.006;2022-10-16T06:41:32;99866.13;;;12.37;100.00
46009;BME280;39597;51.438;7.006;2022-10-16T06:43:59;99868.94;;;12.41;100.00
46009;BME280;39597;51.438;7.006;2022-10-16T06:46:26;99879.19;;;12.44;100.00
46009;BME280;39597;51.438;7.006;2022-10-16T06:48:53;99881.56;;;12.45;100.00
46009;BME280;39597;51.438;7.006;2022-10-16T06:51:23;99881.22;;;12.47;100.00
46009;BME280;39597;51.438;7.006;2022-10-16T06:53:52;99888.34;;;12.51;100.00
46009;BME280;39597;51.438;7.006;2022-10-16T06:56:23;99901.19;;;12.51;100.00
46009;BME280;39597;51.438;7.006;2022-10-16T06:58:49;99897.31;;;12.52;100.00
46009;BME280;39597;51.438;7.006;2022-10-16T07:01:17;99915.38;;;12.56;100.00
46009;BME280;39597;51.438;7.006;2022-10-16T07:03:45;99921.38;;;12.62;100.00
46009;BME280;39597;51.438;7.006;2022-10-16T07:06:12;99922.25;;;12.66;100.00
46009;BME280;39597;51.438;7.006;2022-10-16T07:08:40;99917.94;;;12.65;100.00
46009;BME280;39597;51.438;7.006;2022-10-16T07:11:09;99925.16;;;12.73;100.00
46009;BME280;39597;51.438;7.006;2022-10-16T07:13:36;99931.50;;;12.77;99.81
46009;BME280;39597;51.438;7.006;2022-10-16T07:16:10;99944.81;;;12.79;99.51
46009;BME280;39597;51.438;7.006;2022-10-16T07:18:36;99943.31;;;12.81;99.60
46009;BME280;39597;51.438;7.006;2022-10-16T07:21:13;99944.47;;;12.80;99.42
46009;BME280;39597;51.438;7.006;2022-10-16T07:23:41;99955.75;;;12.79;99.59
46009;BME280;39597;51.438;7.006;2022-10-16T07:26:07;99962.09;;;12.83;99.53
46009;BME280;39597;51.438;7.006;2022-10-16T07:28:33;99957.84;;;12.85;99.50
46009;BME280;39597;51.438;7.006;2022-10-16T07:31:01;99955.91;;;12.86;99.01
46009;BME280;39597;51.438;7.006;2022-10-16T07:33:28;99959.00;;;12.84;99.25
46009;BME280;39597;51.438;7.006;2022-10-16T07:35:54;99959.00;;;12.84;99.33
46009;BME280;39597;51.438;7.006;2022-10-16T07:38:19;99966.91;;;12.89;99.23
46009;BME280;39597;51.438;7.006;2022-10-16T07:40:46;99970.19;;;12.95;98.85
46009;BME280;39597;51.438;7.006;2022-10-16T07:43:11;99973.59;;;13.08;98.43
46009;BME280;39597;51.438;7.006;2022-10-16T07:45:49;99970.19;;;13.11;98.24
46009;BME280;39597;51.438;7.006;2022-10-16T07:48:16;99988.00;;;13.20;97.98
46009;BME280;39597;51.438;7.006;2022-10-16T07:50:43;99982.69;;;13.28;97.60
46009;BME280;39597;51.438;7.006;2022-10-16T07:53:10;99984.88;;;13.38;96.75
46009;BME280;39597;51.438;7.006;2022-10-16T07:55:35;99983.53;;;13.47;96.30
46009;BME280;39597;51.438;7.006;2022-10-16T07:58:01;99994.19;;;13.52;96.19
46009;BME280;39597;51.438;7.006;2022-10-16T08:00:26;99999.81;;;13.60;95.74
46009;BME280;39597;51.438;7.006;2022-10-16T08:02:52;100000.91;;;13.74;94.94
46009;BME280;39597;51.438;7.006;2022-10-16T08:05:17;100004.31;;;13.87;94.64
46009;BME280;39597;51.438;7.006;2022-10-16T08:07:42;100006.75;;;13.92;93.98
46009;BME280;39597;51.438;7.006;2022-10-16T08:10:18;100010.03;;;13.98;93.30
46009;BME280;39597;51.438;7.006;2022-10-16T08:12:44;100009.34;;;14.04;92.67
46009;BME280;39597;51.438;7.006;2022-10-16T08:15:10;100016.13;;;14.10;92.53
46009;BME280;39597;51.438;7.006;2022-10-16T08:17:35;100028.88;;;14.22;91.68
46009;BME280;39597;51.438;7.006;2022-10-16T08:20:00;100032.16;;;14.28;91.42
46009;BME280;39597;51.438;7.006;2022-10-16T08:22:26;100020.53;;;14.34;91.11
46009;BME280;39597;51.438;7.006;2022-10-16T08:24:52;100025.34;;;14.41;90.93
46009;BME280;39597;51.438;7.006;2022-10-16T08:27:17;100026.66;;;14.47;89.62
46009;BME280;39597;51.438;7.006;2022-10-16T08:29:43;100034.28;;;14.57;89.45
46009;BME280;39597;51.438;7.006;2022-10-16T08:32:09;100039.53;;;14.66;88.08
46009;BME280;39597;51.438;7.006;2022-10-16T08:34:35;100041.91;;;14.67;88.01
46009;BME280;39597;51.438;7.006;2022-10-16T08:37:01;100049.72;;;14.65;87.38
46009;BME280;39597;51.438;7.006;2022-10-16T08:39:27;100042.78;;;14.71;86.19
46009;BME280;39597;51.438;7.006;2022-10-16T08:45:04;100047.78;;;14.89;84.99
46009;BME280;39597;51.438;7.006;2022-10-16T08:47:57;100061.16;;;14.94;84.48
46009;BME280;39597;51.438;7.006;2022-10-16T08:50:28;100080.81;;;14.96;84.22
46009;BME280;39597;51.438;7.006;2022-10-16T08:52:56;100083.47;;;14.92;84.68
46009;BME280;39597;51.438;7.006;2022-10-16T08:58:01;100083.97;;;14.98;84.15
46009;BME280;39597;51.438;7.006;2022-10-16T09:00:28;100083.66;;;15.03;84.67
46009;BME280;39597;51.438;7.006;2022-10-16T09:14:50;100097.94;;;15.35;83.43
46009;BME280;39597;51.438;7.006;2022-10-16T09:23:00;100108.16;;;15.38;83.04
46009;BME280;39597;51.438;7.006;2022-10-16T09:25:33;100113.69;;;15.42;82.34
46009;BME280;39597;51.438;7.006;2022-10-16T09:28:00;100120.47;;;15.48;82.08
46009;BME280;39597;51.438;7.006;2022-10-16T09:30:26;100115.84;;;15.52;82.56
46009;BME280;39597;51.438;7.006;2022-10-16T09:32:54;100115.88;;;15.55;82.85
46009;BME280;39597;51.438;7.006;2022-10-16T09:35:50;100124.19;;;15.59;82.11
46009;BME280;39597;51.438;7.006;2022-10-16T09:40:48;100129.56;;;15.52;80.92
46009;BME280;39597;51.438;7.006;2022-10-16T09:43:19;100116.16;;;15.47;81.35
46009;BME280;39597;51.438;7.006;2022-10-16T09:45:57;100120.47;;;15.48;81.53
46009;BME280;39597;51.438;7.006;2022-10-16T09:48:26;100108.88;;;15.58;81.42
46009;BME280;39597;51.438;7.006;2022-10-16T09:50:57;100108.66;;;15.67;80.79
46009;BME280;39597;51.438;7.006;2022-10-16T09:53:23;100117.25;;;15.65;80.66
46009;BME280;39597;51.438;7.006;2022-10-16T09:55:52;100124.09;;;15.78;80.24
46009;BME280;39597;51.438;7.006;2022-10-16T09:58:21;100122.53;;;15.77;80.14
46009;BME280;39597;51.438;7.006;2022-10-16T10:00:51;100122.91;;;15.76;79.82
46009;BME280;39597;51.438;7.006;2022-10-16T10:03:38;100117.81;;;15.78;80.35
46009;BME280;39597;51.438;7.006;2022-10-16T10:06:16;100129.38;;;15.90;80.05
46009;BME280;39597;51.438;7.006;2022-10-16T10:08:57;100127.06;;;15.92;79.71
46009;BME280;39597;51.438;7.006;2022-10-16T10:11:45;100125.66;;;16.02;79.11
46009;BME280;39597;51.438;7.006;2022-10-16T10:14:38;100131.50;;;16.01;79.13
46009;BME280;39597;51.438;7.006;2022-10-16T10:19:44;100124.41;;;15.96;79.00
46009;BME280;39597;51.438;7.006;2022-10-16T10:22:22;100137.50;;;16.10;78.82
46009;BME280;39597;51.438;7.006;2022-10-16T10:25:00;100128.63;;;16.20;78.90
46009;BME280;39597;51.438;7.006;2022-10-16T10:30:42;100133.13;;;16.32;78.16
46009;BME280;39597;51.438;7.006;2022-10-16T10:46:51;100139.66;;;16.53;74.99
46009;BME280;39597;51.438;7.006;2022-10-16T10:57:29;100139.22;;;16.18;75.62
46009;BME280;39597;51.438;7.006;2022-10-16T11:02:39;100147.13;;;16.23;76.45
46009;BME280;39597;51.438;7.006;2022-10-16T11:10:29;100133.41;;;16.57;74.40
46009;BME280;39597;51.438;7.006;2022-10-16T11:13:04;100142.91;;;16.63;72.91
46009;BME280;39597;51.438;7.006;2022-10-16T11:15:37;100140.97;;;16.63;72.75
46009;BME280;39597;51.438;7.006;2022-10-16T11:18:08;100142.88;;;16.59;72.83
46009;BME280;39597;51.438;7.006;2022-10-16T11:20:48;100151.69;;;16.72;71.80
46009;BME280;39597;51.438;7.006;2022-10-16T11:23:23;100143.72;;;16.63;71.96
46009;BME280;39597;51.438;7.006;2022-10-16T11:25:50;100143.25;;;16.58;72.97
46009;BME280;39597;51.438;7.006;2022-10-16T11:28:24;100144.63;;;16.71;73.70
46009;BME280;39597;51.438;7.006;2022-10-16T11:33:32;100157.31;;;17.20;71.95
46009;BME280;39597;51.438;7.006;2022-10-16T11:36:25;100147.94;;;17.28;71.31
46009;BME280;39597;51.438;7.006;2022-10-16T11:39:18;100150.84;;;17.42;70.44
46009;BME280;39597;51.438;7.006;2022-10-16T11:41:53;100151.38;;;17.58;70.29
46009;BME280;39597;51.438;7.006;2022-10-16T11:47:48;100142.31;;;17.58;69.52
46009;BME280;39597;51.438;7.006;2022-10-16T11:50:35;100140.75;;;17.57;68.68
46009;BME280;39597;51.438;7.006;2022-10-16T11:55:52;100147.97;;;17.72;66.89
46009;BME280;39597;51.438;7.006;2022-10-16T11:58:37;100160.19;;;17.74;67.05
46009;BME280;39597;51.438;7.006;2022-10-16T12:01:31;100162.25;;;17.85;66.73
46009;BME280;39597;51.438;7.006;2022-10-16T12:04:19;100174.16;;;17.55;68.05
46009;BME280;39597;51.438;7.006;2022-10-16T12:09:27;100170.66;;;17.58;68.44
46009;BME280;39597;51.438;7.006;2022-10-16T12:11:54;100178.19;;;17.65;67.86
46009;BME280;39597;51.438;7.006;2022-10-16T12:17:20;100176.88;;;17.48;68.14
46009;BME280;39597;51.438;7.006;2022-10-16T12:19:58;100170.44;;;17.33;69.47
46009;BME280;39597;51.438;7.006;2022-10-16T12:22:27;100178.38;;;17.45;69.70
46009;BME280;39597;51.438;7.006;2022-10-16T12:24:54;100171.06;;;17.60;68.70
46009;BME280;39597;51.438;7.006;2022-10-16T12:27:30;100170.53;;;17.92;67.75
46009;BME280;39597;51.438;7.006;2022-10-16T12:30:03;100173.97;;;17.74;68.40
46009;BME280;39597;51.438;7.006;2022-10-16T12:32:35;100178.59;;;17.67;68.39
46009;BME280;39597;51.438;7.006;2022-10-16T12:35:03;100171.44;;;17.59;68.77
46009;BME280;39597;51.438;7.006;2022-10-16T12:37:34;100174.56;;;17.57;68.42
46009;BME280;39597;51.438;7.006;2022-10-16T12:40:12;100172.03;;;17.34;69.05
46009;BME280;39597;51.438;7.006;2022-10-16T12:42:38;100180.72;;;17.40;68.71
46009;BME280;39597;51.438;7.006;2022-10-16T12:45:22;100186.22;;;17.40;69.17
46009;BME280;39597;51.438;7.006;2022-10-16T12:47:51;100181.59;;;17.51;68.51
46009;BME280;39597;51.438;7.006;2022-10-16T12:50:37;100188.63;;;17.45;68.10
46009;BME280;39597;51.438;7.006;2022-10-16T12:53:17;100183.00;;;17.31;67.69
46009;BME280;39597;51.438;7.006;2022-10-16T12:55:51;100187.59;;;17.20;68.32
46009;BME280;39597;51.438;7.006;2022-10-16T13:01:37;100196.06;;;17.41;68.19
46009;BME280;39597;51.438;7.006;2022-10-16T13:04:34;100182.41;;;17.55;67.46
46009;BME280;39597;51.438;7.006;2022-10-16T13:12:50;100189.94;;;18.06;65.23
46009;BME280;39597;51.438;7.006;2022-10-16T13:15:31;100185.31;;;18.21;64.75
46009;BME280;39597;51.438;7.006;2022-10-16T13:20:39;100182.03;;;18.01;63.67
46009;BME280;39597;51.438;7.006;2022-10-16T13:26:05;100189.41;;;17.90;64.76
46009;BME280;39597;51.438;7.006;2022-10-16T13:28:35;100192.81;;;17.72;65.68
46009;BME280;39597;51.438;7.006;2022-10-16T13:31:03;100199.47;;;17.68;66.08
46009;BME280;39597;51.438;7.006;2022-10-16T13:35:55;100211.34;;;17.35;66.75
46009;BME280;39597;51.438;7.006;2022-10-16T13:38:26;100214.84;;;17.32;66.87
46009;BME280;39597;51.438;7.006;2022-10-16T13:41:03;100211.66;;;17.30;67.10
46009;BME280;39597;51.438;7.006;2022-10-16T13:43:41;100212.03;;;17.28;66.38
46009;BME280;39597;51.438;7.006;2022-10-16T13:46:19;100213.59;;;17.26;66.51
46009;BME280;39597;51.438;7.006;2022-10-16T13:48:59;100198.56;;;17.16;67.52
46009;BME280;39597;51.438;7.006;2022-10-16T13:51:25;100195.44;;;17.18;67.90
46009;BME280;39597;51.438;7.006;2022-10-16T13:53:51;100192.22;;;17.12;67.95
46009;BME280;39597;51.438;7.006;2022-10-16T13:56:19;100198.59;;;17.20;68.27
46009;BME280;39597;51.438;7.006;2022-10-16T13:58:45;100196.59;;;17.17;68.31
46009;BME280;39597;51.438;7.006;2022-10-16T14:01:17;100199.13;;;17.32;67.79
46009;BME280;39597;51.438;7.006;2022-10-16T14:03:45;100199.44;;;17.27;67.77
46009;BME280;39597;51.438;7.006;2022-10-16T14:06:16;100195.88;;;17.23;68.19
46009;BME280;39597;51.438;7.006;2022-10-16T14:08:44;100201.88;;;17.32;68.33
46009;BME280;39597;51.438;7.006;2022-10-16T14:11:12;100210.22;;;17.43;68.18
46009;BME280;39597;51.438;7.006;2022-10-16T14:13:39;100202.31;;;17.38;66.71
46009;BME280;39597;51.438;7.006;2022-10-16T14:16:22;100209.75;;;17.34;67.80
46009;BME280;39597;51.438;7.006;2022-10-16T14:19:25;100218.72;;;17.27;67.79
46009;BME280;39597;51.438;7.006;2022-10-16T14:21:52;100225.41;;;17.30;67.84
46009;BME280;39597;51.438;7.006;2022-10-16T14:24:33;100224.19;;;17.24;68.32
46009;BME280;39597;51.438;7.006;2022-10-16T14:26:59;100222.22;;;17.24;67.81
46009;BME280;39597;51.438;7.006;2022-10-16T14:29:26;100221.84;;;17.26;68.52
46009;BME280;39597;51.438;7.006;2022-10-16T14:31:56;100227.28;;;17.19;68.81
46009;BME280;39597;51.438;7.006;2022-10-16T14:34:33;100214.31;;;17.19;68.74
46009;BME280;39597;51.438;7.006;2022-10-16T14:37:01;100203.31;;;17.19;68.35
46009;BME280;39597;51.438;7.006;2022-10-16T14:39:32;100169.53;;;17.22;68.28
46009;BME280;39597;51.438;7.006;2022-10-16T14:41:58;100187.44;;;17.46;68.06